sensor_id;sensor_type;location;lat;lon;timestamp;pressure;altitude;pressure_sealevel;temperature;humidity
706;BME280;21234;48.690;9.016;2024-01-10T00:01:03;96824.25;;;-5.86;79.71
706;BME280;21234;48.690;9.016;2024-01-10T00:03:32;96836.56;;;-5.65;78.45
706;BME280;21234;48.690;9.016;2024-01-10T00:05:59;96832.75;;;-5.82;79.09
706;BME280;21234;48.690;9.016;2024-01-10T00:08:26;96828.59;;;-5.75;80.21
706;BME280;21234;48.690;9.016;2024-01-10T00:10:53;96824.97;;;-5.74;80.04
706;BME280;21234;48.690;9.016;2024-01-10T00:13:20;96831.06;;;-5.83;79.97
706;BME280;21234;48.690;9.016;2024-01-10T00:15:47;96825.84;;;-5.54;79.45
706;BME280;21234;48.690;9.016;2024-01-10T00:18:14;96829.63;;;-5.37;77.75
706;BME280;21234;48.690;9.016;2024-01-10T00:20:43;96832.13;;;-5.36;77.87
706;BME280;21234;48.690;9.016;2024-01-10T00:23:10;96829.47;;;-5.55;78.40
706;BME280;21234;48.690;9.016;2024-01-10T00:25:36;96822.63;;;-5.58;77.99
706;BME280;21234;48.690;9.016;2024-01-10T00:28:04;96825.97;;;-5.46;78.82
706;BME280;21234;48.690;9.016;2024-01-10T00:30:30;96819.84;;;-5.56;77.85
706;BME280;21234;48.690;9.016;2024-01-10T00:32:57;96825.16;;;-5.56;77.35
706;BME280;21234;48.690;9.016;2024-01-10T00:35:24;96819.72;;;-5.55;77.18
706;BME280;21234;48.690;9.016;2024-01-10T00:37:53;96823.03;;;-5.62;78.01
706;BME280;21234;48.690;9.016;2024-01-10T00:40:19;96815.91;;;-5.71;79.03
706;BME280;21234;48.690;9.016;2024-01-10T00:42:47;96812.16;;;-5.69;79.58
706;BME280;21234;48.690;9.016;2024-01-10T00:45:14;96816.59;;;-5.79;79.47
706;BME280;21234;48.690;9.016;2024-01-10T00:47:41;96811.06;;;-5.57;79.89
706;BME280;21234;48.690;9.016;2024-01-10T00:50:08;96808.69;;;-5.60;79.79
706;BME280;21234;48.690;9.016;2024-01-10T00:52:36;96808.97;;;-5.63;80.22
706;BME280;21234;48.690;9.016;2024-01-10T00:55:04;96815.13;;;-5.53;80.22
706;BME280;21234;48.690;9.016;2024-01-10T00:57:31;96804.78;;;-5.56;80.16
706;BME280;21234;48.690;9.016;2024-01-10T00:59:58;96818.47;;;-5.31;80.06
706;BME280;21234;48.690;9.016;2024-01-10T01:02:25;96808.00;;;-5.33;80.31
706;BME280;21234;48.690;9.016;2024-01-10T01:04:51;96812.03;;;-5.48;82.03
706;BME280;21234;48.690;9.016;2024-01-10T01:07:18;96814.41;;;-5.45;82.11
706;BME280;21234;48.690;9.016;2024-01-10T01:09:45;96805.50;;;-5.54;83.15
706;BME280;21234;48.690;9.016;2024-01-10T01:12:13;96808.72;;;-5.31;82.45
706;BME280;21234;48.690;9.016;2024-01-10T01:14:40;96809.66;;;-5.42;82.41
706;BME280;21234;48.690;9.016;2024-01-10T01:17:07;96803.81;;;-5.45;82.08
706;BME280;21234;48.690;9.016;2024-01-10T01:19:33;96804.22;;;-5.50;82.35
706;BME280;21234;48.690;9.016;2024-01-10T01:22:00;96806.59;;;-5.56;82.51
706;BME280;21234;48.690;9.016;2024-01-10T01:24:27;96807.31;;;-5.54;82.46
706;BME280;21234;48.690;9.016;2024-01-10T01:26:53;96812.88;;;-5.48;82.05
706;BME280;21234;48.690;9.016;2024-01-10T01:29:22;96810.03;;;-5.75;82.04
706;BME280;21234;48.690;9.016;2024-01-10T01:31:50;96814.50;;;-5.85;82.11
706;BME280;21234;48.690;9.016;2024-01-10T01:34:17;96813.66;;;-5.86;81.89
706;BME280;21234;48.690;9.016;2024-01-10T01:36:44;96817.28;;;-5.77;81.45
706;BME280;21234;48.690;9.016;2024-01-10T01:39:11;96822.47;;;-5.66;79.41
706;BME280;21234;48.690;9.016;2024-01-10T01:41:38;96816.63;;;-5.60;76.48
706;BME280;21234;48.690;9.016;2024-01-10T01:44:05;96817.91;;;-5.54;74.01
706;BME280;21234;48.690;9.016;2024-01-10T01:46:34;96816.94;;;-5.53;73.85
706;BME280;21234;48.690;9.016;2024-01-10T01:49:01;96808.69;;;-5.50;71.51
706;BME280;21234;48.690;9.016;2024-01-10T01:51:29;96805.34;;;-5.43;74.49
706;BME280;21234;48.690;9.016;2024-01-10T01:53:57;96811.06;;;-5.47;70.81
706;BME280;21234;48.690;9.016;2024-01-10T01:56:24;96811.06;;;-5.57;71.07
706;BME280;21234;48.690;9.016;2024-01-10T01:58:51;96807.00;;;-5.61;70.19
706;BME280;21234;48.690;9.016;2024-01-10T02:01:19;96807.00;;;-5.61;69.57
706;BME280;21234;48.690;9.016;2024-01-10T02:03:48;96804.91;;;-5.67;70.40
706;BME280;21234;48.690;9.016;2024-01-10T02:06:15;96814.81;;;-5.69;69.43
706;BME280;21234;48.690;9.016;2024-01-10T02:08:41;96807.81;;;-5.70;68.71
706;BME280;21234;48.690;9.016;2024-01-10T02:11:08;96809.94;;;-5.64;69.17
706;BME280;21234;48.690;9.016;2024-01-10T02:13:35;96801.41;;;-5.67;68.84
706;BME280;21234;48.690;9.016;2024-01-10T02:16:03;96805.59;;;-5.65;69.32
706;BME280;21234;48.690;9.016;2024-01-10T02:18:30;96804.06;;;-5.67;68.08
706;BME280;21234;48.690;9.016;2024-01-10T02:20:59;96797.53;;;-5.63;68.75
706;BME280;21234;48.690;9.016;2024-01-10T02:23:25;96808.69;;;-5.60;68.65
706;BME280;21234;48.690;9.016;2024-01-10T02:25:53;96801.56;;;-5.50;69.13
706;BME280;21234;48.690;9.016;2024-01-10T02:28:20;96798.78;;;-5.48;69.66
706;BME280;21234;48.690;9.016;2024-01-10T02:30:48;96799.63;;;-5.48;68.85
706;BME280;21234;48.690;9.016;2024-01-10T02:33:15;96790.28;;;-5.52;68.95
706;BME280;21234;48.690;9.016;2024-01-10T02:35:42;96798.53;;;-5.55;68.70
706;BME280;21234;48.690;9.016;2024-01-10T02:38:09;96794.75;;;-5.62;68.55
706;BME280;21234;48.690;9.016;2024-01-10T02:40:36;96792.22;;;-5.63;69.10
706;BME280;21234;48.690;9.016;2024-01-10T02:43:04;96794.31;;;-5.67;68.70
706;BME280;21234;48.690;9.016;2024-01-10T02:45:32;96794.03;;;-5.64;69.41
706;BME280;21234;48.690;9.016;2024-01-10T02:47:59;96795.56;;;-5.71;68.81
706;BME280;21234;48.690;9.016;2024-01-10T02:50:25;96786.63;;;-5.70;68.92
706;BME280;21234;48.690;9.016;2024-01-10T02:52:52;96789.56;;;-5.73;69.02
706;BME280;21234;48.690;9.016;2024-01-10T02:55:19;96786.22;;;-5.75;68.58
706;BME280;21234;48.690;9.016;2024-01-10T02:57:45;96782.59;;;-5.74;69.07
706;BME280;21234;48.690;9.016;2024-01-10T03:00:14;96782.31;;;-5.71;68.28
706;BME280;21234;48.690;9.016;2024-01-10T03:02:41;96779.94;;;-5.74;68.59
706;BME280;21234;48.690;9.016;2024-01-10T03:05:08;96782.44;;;-5.72;69.01
706;BME280;21234;48.690;9.016;2024-01-10T03:07:34;96779.09;;;-5.75;69.66
706;BME280;21234;48.690;9.016;2024-01-10T03:10:01;96775.88;;;-5.78;69.53
706;BME280;21234;48.690;9.016;2024-01-10T03:12:29;96776.44;;;-5.75;69.96
706;BME280;21234;48.690;9.016;2024-01-10T03:14:56;96769.06;;;-5.71;69.33
706;BME280;21234;48.690;9.016;2024-01-10T03:17:24;96771.03;;;-5.73;68.86
706;BME280;21234;48.690;9.016;2024-01-10T03:19:50;96767.13;;;-5.69;69.44
706;BME280;21234;48.690;9.016;2024-01-10T03:22:17;96762.66;;;-5.78;68.75
706;BME280;21234;48.690;9.016;2024-01-10T03:24:44;96765.69;;;-5.83;69.33
706;BME280;21234;48.690;9.016;2024-01-10T03:27:11;96764.63;;;-5.70;69.64
706;BME280;21234;48.690;9.016;2024-01-10T03:29:37;96761.69;;;-5.67;69.44
706;BME280;21234;48.690;9.016;2024-01-10T03:32:04;96764.03;;;-5.74;69.27
706;BME280;21234;48.690;9.016;2024-01-10T03:34:33;96759.19;;;-5.69;70.69
706;BME280;21234;48.690;9.016;2024-01-10T03:37:00;96760.16;;;-5.70;68.97
706;BME280;21234;48.690;9.016;2024-01-10T03:39:27;96761.56;;;-5.66;70.02
706;BME280;21234;48.690;9.016;2024-01-10T03:41:54;96757.38;;;-5.59;69.27
706;BME280;21234;48.690;9.016;2024-01-10T03:44:20;96758.91;;;-5.47;69.96
706;BME280;21234;48.690;9.016;2024-01-10T03:46:47;96762.97;;;-5.52;69.04
706;BME280;21234;48.690;9.016;2024-01-10T03:49:14;96769.38;;;-5.55;69.50
706;BME280;21234;48.690;9.016;2024-01-10T03:51:42;96760.31;;;-5.52;69.26
706;BME280;21234;48.690;9.016;2024-01-10T03:54:09;96774.81;;;-5.47;69.06
706;BME280;21234;48.690;9.016;2024-01-10T03:56:35;96765.44;;;-5.51;68.42
706;BME280;21234;48.690;9.016;2024-01-10T03:59:02;96770.91;;;-5.62;68.53
706;BME280;21234;48.690;9.016;2024-01-10T04:01:29;96776.75;;;-5.58;68.83
706;BME280;21234;48.690;9.016;2024-01-10T04:03:55;96775.22;;;-5.61;69.36
706;BME280;21234;48.690;9.016;2024-01-10T04:06:22;96772.41;;;-5.69;68.91
706;BME280;21234;48.690;9.016;2024-01-10T04:08:50;96773.53;;;-5.71;68.45
706;BME280;21234;48.690;9.016;2024-01-10T04:11:17;96776.72;;;-5.78;68.99
706;BME280;21234;48.690;9.016;2024-01-10T04:13:43;96772.97;;;-5.75;69.18
706;BME280;21234;48.690;9.016;2024-01-10T04:16:11;96781.06;;;-5.67;70.09
706;BME280;21234;48.690;9.016;2024-01-10T04:18:38;96778.97;;;-5.73;68.66
706;BME280;21234;48.690;9.016;2024-01-10T04:21:05;96771.03;;;-5.63;69.89
706;BME280;21234;48.690;9.016;2024-01-10T04:23:32;96777.19;;;-5.53;70.69
706;BME280;21234;48.690;9.016;2024-01-10T04:26:01;96776.06;;;-5.60;70.41
706;BME280;21234;48.690;9.016;2024-01-10T04:28:28;96780.38;;;-5.59;69.58
706;BME280;21234;48.690;9.016;2024-01-10T04:30:55;96777.88;;;-5.61;69.57
706;BME280;21234;48.690;9.016;2024-01-10T04:33:21;96781.38;;;-5.60;69.48
706;BME280;21234;48.690;9.016;2024-01-10T04:35:48;96780.38;;;-5.69;70.00
706;BME280;21234;48.690;9.016;2024-01-10T04:38:15;96778.28;;;-5.65;70.86
706;BME280;21234;48.690;9.016;2024-01-10T04:40:42;96775.78;;;-5.57;70.96
706;BME280;21234;48.690;9.016;2024-01-10T04:43:10;96777.47;;;-5.56;70.29
706;BME280;21234;48.690;9.016;2024-01-10T04:45:37;96776.75;;;-5.68;70.26
706;BME280;21234;48.690;9.016;2024-01-10T04:48:04;96779.41;;;-5.68;71.43
706;BME280;21234;48.690;9.016;2024-01-10T04:50:31;96774.53;;;-5.63;70.62
706;BME280;21234;48.690;9.016;2024-01-10T04:52:57;96768.13;;;-5.60;71.04
706;BME280;21234;48.690;9.016;2024-01-10T04:55:24;96767.13;;;-5.69;71.33
706;BME280;21234;48.690;9.016;2024-01-10T04:57:51;96772.69;;;-5.72;70.79
706;BME280;21234;48.690;9.016;2024-01-10T05:00:19;96774.22;;;-5.69;71.05
706;BME280;21234;48.690;9.016;2024-01-10T05:02:46;96777.72;;;-5.69;70.68
706;BME280;21234;48.690;9.016;2024-01-10T05:05:13;96780.22;;;-5.67;71.65
706;BME280;21234;48.690;9.016;2024-01-10T05:07:41;96782.47;;;-5.63;71.62
706;BME280;21234;48.690;9.016;2024-01-10T05:10:08;96784.16;;;-5.62;71.04
706;BME280;21234;48.690;9.016;2024-01-10T05:12:35;96779.56;;;-5.60;71.96
706;BME280;21234;48.690;9.016;2024-01-10T05:15:02;96772.56;;;-5.61;71.35
706;BME280;21234;48.690;9.016;2024-01-10T05:17:32;96778.56;;;-5.59;71.58
706;BME280;21234;48.690;9.016;2024-01-10T05:19:58;96778.56;;;-5.68;71.70
706;BME280;21234;48.690;9.016;2024-01-10T05:22:26;96775.63;;;-5.65;70.95
706;BME280;21234;48.690;9.016;2024-01-10T05:24:53;96778.41;;;-5.67;71.56
706;BME280;21234;48.690;9.016;2024-01-10T05:27:20;96776.88;;;-5.69;71.84
706;BME280;21234;48.690;9.016;2024-01-10T05:29:46;96775.78;;;-5.57;72.60
706;BME280;21234;48.690;9.016;2024-01-10T05:32:14;96783.59;;;-5.56;72.37
706;BME280;21234;48.690;9.016;2024-01-10T05:34:42;96779.28;;;-5.57;71.28
706;BME280;21234;48.690;9.016;2024-01-10T05:37:10;96788.34;;;-5.59;72.10
706;BME280;21234;48.690;9.016;2024-01-10T05:39:36;96785.13;;;-5.44;72.70
706;BME280;21234;48.690;9.016;2024-01-10T05:42:06;96786.53;;;-5.59;73.47
706;BME280;21234;48.690;9.016;2024-01-10T05:44:34;96792.38;;;-5.55;72.63
706;BME280;21234;48.690;9.016;2024-01-10T05:47:00;96784.72;;;-5.58;71.91
706;BME280;21234;48.690;9.016;2024-01-10T05:49:28;96773.97;;;-5.66;72.34
706;BME280;21234;48.690;9.016;2024-01-10T05:51:56;96775.50;;;-5.64;74.49
706;BME280;21234;48.690;9.016;2024-01-10T05:54:23;96782.03;;;-5.68;74.20
706;BME280;21234;48.690;9.016;2024-01-10T05:56:49;96776.63;;;-5.57;75.13
706;BME280;21234;48.690;9.016;2024-01-10T05:59:16;96783.16;;;-5.42;75.43
706;BME280;21234;48.690;9.016;2024-01-10T06:01:43;96786.38;;;-5.67;75.98
706;BME280;21234;48.690;9.016;2024-01-10T06:04:10;96791.06;;;-5.80;75.26
706;BME280;21234;48.690;9.016;2024-01-10T06:06:36;96790.81;;;-5.96;75.80
706;BME280;21234;48.690;9.016;2024-01-10T06:09:04;96786.34;;;-5.96;77.40
706;BME280;21234;48.690;9.016;2024-01-10T06:11:31;96786.38;;;-5.67;76.66
706;BME280;21234;48.690;9.016;2024-01-10T06:13:58;96781.06;;;-5.77;76.84
706;BME280;21234;48.690;9.016;2024-01-10T06:16:25;96783.84;;;-5.78;76.78
706;BME280;21234;48.690;9.016;2024-01-10T06:18:51;96781.75;;;-5.75;76.24
706;BME280;21234;48.690;9.016;2024-01-10T06:21:18;96782.88;;;-5.67;76.12
706;BME280;21234;48.690;9.016;2024-01-10T06:23:45;96778.97;;;-5.63;75.88
706;BME280;21234;48.690;9.016;2024-01-10T06:26:13;96776.03;;;-5.70;76.38
706;BME280;21234;48.690;9.016;2024-01-10T06:28:40;96780.63;;;-5.82;77.19
706;BME280;21234;48.690;9.016;2024-01-10T06:31:07;96775.78;;;-5.67;77.15
706;BME280;21234;48.690;9.016;2024-01-10T06:33:34;96784.41;;;-5.75;76.36
706;BME280;21234;48.690;9.016;2024-01-10T06:36:01;96785.38;;;-5.85;77.64
706;BME280;21234;48.690;9.016;2024-01-10T06:38:27;96794.44;;;-5.97;77.76
706;BME280;21234;48.690;9.016;2024-01-10T06:40:54;96794.97;;;-6.03;77.45
706;BME280;21234;48.690;9.016;2024-01-10T06:43:22;96799.13;;;-6.11;79.16
706;BME280;21234;48.690;9.016;2024-01-10T06:45:49;96786.34;;;-5.77;78.81
706;BME280;21234;48.690;9.016;2024-01-10T06:48:16;96789.25;;;-5.80;78.10
706;BME280;21234;48.690;9.016;2024-01-10T06:50:44;96796.25;;;-5.69;78.51
706;BME280;21234;48.690;9.016;2024-01-10T06:53:11;96796.09;;;-5.77;78.79
706;BME280;21234;48.690;9.016;2024-01-10T06:55:37;96793.75;;;-5.70;78.87
706;BME280;21234;48.690;9.016;2024-01-10T06:58:04;96809.47;;;-5.79;78.89
706;BME280;21234;48.690;9.016;2024-01-10T07:00:33;96808.78;;;-5.81;78.73
706;BME280;21234;48.690;9.016;2024-01-10T07:03:01;96798.34;;;-5.72;79.50
706;BME280;21234;48.690;9.016;2024-01-10T07:05:28;96801.97;;;-5.73;78.48
706;BME280;21234;48.690;9.016;2024-01-10T07:07:56;96812.81;;;-5.96;80.11
706;BME280;21234;48.690;9.016;2024-01-10T07:10:23;96804.88;;;-5.86;80.78
706;BME280;21234;48.690;9.016;2024-01-10T07:12:53;96815.47;;;-5.86;79.51
706;BME280;21234;48.690;9.016;2024-01-10T07:15:19;96814.94;;;-5.90;79.89
706;BME280;21234;48.690;9.016;2024-01-10T07:17:48;96813.97;;;-5.89;80.15
706;BME280;21234;48.690;9.016;2024-01-10T07:20:15;96806.84;;;-5.69;79.25
706;BME280;21234;48.690;9.016;2024-01-10T07:22:41;96818.59;;;-5.62;78.63
706;BME280;21234;48.690;9.016;2024-01-10T07:25:09;96823.56;;;-5.78;79.40
706;BME280;21234;48.690;9.016;2024-01-10T07:27:39;96822.16;;;-5.82;79.86
706;BME280;21234;48.690;9.016;2024-01-10T07:30:07;96820.91;;;-5.78;79.30
706;BME280;21234;48.690;9.016;2024-01-10T07:32:39;96823.28;;;-5.75;79.57
706;BME280;21234;48.690;9.016;2024-01-10T07:35:08;96817.19;;;-5.66;80.03
706;BME280;21234;48.690;9.016;2024-01-10T07:37:35;96822.63;;;-5.58;81.27
706;BME280;21234;48.690;9.016;2024-01-10T07:40:02;96823.88;;;-5.62;80.45
706;BME280;21234;48.690;9.016;2024-01-10T07:42:30;96826.69;;;-5.54;80.35
706;BME280;21234;48.690;9.016;2024-01-10T07:44:57;96826.81;;;-5.65;80.07
706;BME280;21234;48.690;9.016;2024-01-10T07:47:24;96830.41;;;-5.66;80.86
706;BME280;21234;48.690;9.016;2024-01-10T07:49:51;96834.06;;;-5.48;81.91
706;BME280;21234;48.690;9.016;2024-01-10T07:52:19;96841.44;;;-5.51;80.18
706;BME280;21234;48.690;9.016;2024-01-10T07:54:45;96844.97;;;-5.41;79.88
706;BME280;21234;48.690;9.016;2024-01-10T07:57:13;96850.53;;;-5.44;81.23
706;BME280;21234;48.690;9.016;2024-01-10T07:59:40;96850.00;;;-5.09;80.29
706;BME280;21234;48.690;9.016;2024-01-10T08:02:06;96848.72;;;-5.15;80.57
706;BME280;21234;48.690;9.016;2024-01-10T08:04:35;96848.44;;;-4.83;78.04
706;BME280;21234;48.690;9.016;2024-01-10T08:07:03;96841.53;;;-4.47;77.35
706;BME280;21234;48.690;9.016;2024-01-10T08:09:31;96835.00;;;-4.15;75.98
706;BME280;21234;48.690;9.016;2024-01-10T08:11:58;96837.47;;;-4.31;74.87
706;BME280;21234;48.690;9.016;2024-01-10T08:14:24;96840.25;;;-4.33;74.27
706;BME280;21234;48.690;9.016;2024-01-10T08:16:52;96841.06;;;-4.23;71.68
706;BME280;21234;48.690;9.016;2024-01-10T08:19:20;96852.34;;;-4.21;72.49
706;BME280;21234;48.690;9.016;2024-01-10T08:21:46;96857.56;;;-4.29;73.06
706;BME280;21234;48.690;9.016;2024-01-10T08:24:13;96854.84;;;-4.10;73.14
706;BME280;21234;48.690;9.016;2024-01-10T08:26:41;96857.03;;;-4.32;72.26
706;BME280;21234;48.690;9.016;2024-01-10T08:29:08;96857.44;;;-4.27;72.91
706;BME280;21234;48.690;9.016;2024-01-10T08:31:35;96856.94;;;-4.03;73.59
706;BME280;21234;48.690;9.016;2024-01-10T08:34:01;96863.88;;;-3.93;74.30
706;BME280;21234;48.690;9.016;2024-01-10T08:36:28;96861.56;;;-4.15;74.70
706;BME280;21234;48.690;9.016;2024-01-10T08:38:55;96866.31;;;-4.19;75.11
706;BME280;21234;48.690;9.016;2024-01-10T08:41:21;96857.31;;;-4.35;75.88
706;BME280;21234;48.690;9.016;2024-01-10T08:43:49;96863.69;;;-4.19;76.12
706;BME280;21234;48.690;9.016;2024-01-10T08:46:16;96862.75;;;-4.37;77.38
706;BME280;21234;48.690;9.016;2024-01-10T08:48:43;96860.16;;;-4.56;76.87
706;BME280;21234;48.690;9.016;2024-01-10T08:51:09;96861.66;;;-4.54;75.53
706;BME280;21234;48.690;9.016;2024-01-10T08:53:37;96868.50;;;-4.51;71.88
706;BME280;21234;48.690;9.016;2024-01-10T08:56:04;96875.59;;;-4.32;73.16
706;BME280;21234;48.690;9.016;2024-01-10T08:58:31;96880.06;;;-4.33;73.97
706;BME280;21234;48.690;9.016;2024-01-10T09:00:59;96868.47;;;-4.22;73.46
706;BME280;21234;48.690;9.016;2024-01-10T09:03:26;96881.81;;;-4.04;71.49
706;BME280;21234;48.690;9.016;2024-01-10T09:05:53;96891.75;;;-4.16;70.39
706;BME280;21234;48.690;9.016;2024-01-10T09:08:19;96889.66;;;-4.13;69.46
706;BME280;21234;48.690;9.016;2024-01-10T09:10:46;96890.91;;;-4.17;69.56
706;BME280;21234;48.690;9.016;2024-01-10T09:13:14;96891.81;;;-4.35;70.03
706;BME280;21234;48.690;9.016;2024-01-10T09:15:41;96891.75;;;-4.16;69.47
706;BME280;21234;48.690;9.016;2024-01-10T09:18:09;96890.31;;;-3.91;69.89
706;BME280;21234;48.690;9.016;2024-01-10T09:20:36;96892.97;;;-3.91;68.24
706;BME280;21234;48.690;9.016;2024-01-10T09:23:03;96890.66;;;-3.77;69.21
706;BME280;21234;48.690;9.016;2024-01-10T09:25:30;96889.50;;;-3.74;68.96
706;BME280;21234;48.690;9.016;2024-01-10T09:27:57;96889.88;;;-3.59;68.42
706;BME280;21234;48.690;9.016;2024-01-10T09:30:24;96901.88;;;-3.55;68.76
706;BME280;21234;48.690;9.016;2024-01-10T09:32:51;96895.53;;;-3.72;68.01
706;BME280;21234;48.690;9.016;2024-01-10T09:35:19;96896.91;;;-3.68;68.78
706;BME280;21234;48.690;9.016;2024-01-10T09:37:45;96899.59;;;-3.78;69.00
706;BME280;21234;48.690;9.016;2024-01-10T09:40:14;96901.13;;;-3.75;68.19
706;BME280;21234;48.690;9.016;2024-01-10T09:42:41;96905.13;;;-3.61;69.17
706;BME280;21234;48.690;9.016;2024-01-10T09:45:09;96901.38;;;-3.68;69.02
706;BME280;21234;48.690;9.016;2024-01-10T09:47:39;96901.25;;;-3.67;68.98
706;BME280;21234;48.690;9.016;2024-01-10T09:50:07;96895.63;;;-3.64;69.21
706;BME280;21234;48.690;9.016;2024-01-10T09:52:41;96895.13;;;-3.50;69.28
706;BME280;21234;48.690;9.016;2024-01-10T09:55:09;96896.53;;;-3.55;68.85
706;BME280;21234;48.690;9.016;2024-01-10T09:57:39;96900.88;;;-3.54;68.20
706;BME280;21234;48.690;9.016;2024-01-10T10:00:09;96895.19;;;-3.59;69.22
706;BME280;21234;48.690;9.016;2024-01-10T10:02:38;96899.31;;;-3.47;68.40
706;BME280;21234;48.690;9.016;2024-01-10T10:05:08;96894.50;;;-3.34;69.25
706;BME280;21234;48.690;9.016;2024-01-10T10:07:44;96892.66;;;-3.33;68.37
706;BME280;21234;48.690;9.016;2024-01-10T10:10:11;96896.56;;;-3.28;67.99
706;BME280;21234;48.690;9.016;2024-01-10T10:12:43;96898.09;;;-3.25;68.03
706;BME280;21234;48.690;9.016;2024-01-10T10:15:12;96894.34;;;-3.32;68.64
706;BME280;21234;48.690;9.016;2024-01-10T10:17:40;96881.66;;;-3.21;68.44
706;BME280;21234;48.690;9.016;2024-01-10T10:20:13;96880.56;;;-3.00;68.98
706;BME280;21234;48.690;9.016;2024-01-10T10:22:40;96885.25;;;-3.12;67.59
706;BME280;21234;48.690;9.016;2024-01-10T10:25:18;96886.78;;;-3.10;67.53
706;BME280;21234;48.690;9.016;2024-01-10T10:27:44;96898.19;;;-2.99;67.62
706;BME280;21234;48.690;9.016;2024-01-10T10:30:11;96898.03;;;-2.98;67.64
706;BME280;21234;48.690;9.016;2024-01-10T10:32:38;96894.75;;;-2.92;67.85
706;BME280;21234;48.690;9.016;2024-01-10T10:35:06;96887.00;;;-3.03;68.16
706;BME280;21234;48.690;9.016;2024-01-10T10:37:35;96890.66;;;-3.04;68.50
706;BME280;21234;48.690;9.016;2024-01-10T10:40:02;96885.72;;;-2.81;68.51
706;BME280;21234;48.690;9.016;2024-01-10T10:42:30;96883.50;;;-2.68;67.66
706;BME280;21234;48.690;9.016;2024-01-10T10:45:02;96884.03;;;-2.64;67.08
706;BME280;21234;48.690;9.016;2024-01-10T10:47:30;96872.16;;;-2.52;67.33
706;BME280;21234;48.690;9.016;2024-01-10T10:50:05;96868.56;;;-2.43;67.69
706;BME280;21234;48.690;9.016;2024-01-10T10:52:32;96876.00;;;-2.29;66.76
706;BME280;21234;48.690;9.016;2024-01-10T10:55:02;96875.88;;;-2.19;66.40
706;BME280;21234;48.690;9.016;2024-01-10T10:57:32;96871.25;;;-2.17;66.76
706;BME280;21234;48.690;9.016;2024-01-10T10:59:59;96869.03;;;-2.22;65.47
706;BME280;21234;48.690;9.016;2024-01-10T11:02:26;96875.16;;;-2.29;65.70
706;BME280;21234;48.690;9.016;2024-01-10T11:04:54;96875.63;;;-2.34;66.17
706;BME280;21234;48.690;9.016;2024-01-10T11:07:21;96885.41;;;-2.17;67.41
706;BME280;21234;48.690;9.016;2024-01-10T11:09:49;96879.44;;;-2.11;67.28
706;BME280;21234;48.690;9.016;2024-01-10T11:12:27;96876.09;;;-2.13;66.11
706;BME280;21234;48.690;9.016;2024-01-10T11:15:14;96879.44;;;-2.11;66.09
706;BME280;21234;48.690;9.016;2024-01-10T11:18:09;96881.66;;;-2.06;66.04
706;BME280;21234;48.690;9.016;2024-01-10T11:20:54;96886.84;;;-2.22;66.61
706;BME280;21234;48.690;9.016;2024-01-10T11:23:48;96882.09;;;-2.11;66.92
706;BME280;21234;48.690;9.016;2024-01-10T11:26:16;96878.53;;;-1.93;66.50
706;BME280;21234;48.690;9.016;2024-01-10T11:28:44;96871.03;;;-1.98;66.31
706;BME280;21234;48.690;9.016;2024-01-10T11:31:13;96871.88;;;-1.97;66.21
706;BME280;21234;48.690;9.016;2024-01-10T11:33:41;96873.03;;;-2.00;66.33
706;BME280;21234;48.690;9.016;2024-01-10T11:36:13;96873.06;;;-1.92;67.03
706;BME280;21234;48.690;9.016;2024-01-10T11:38:47;96874.03;;;-1.93;65.32
706;BME280;21234;48.690;9.016;2024-01-10T11:41:22;96876.22;;;-1.96;65.68
706;BME280;21234;48.690;9.016;2024-01-10T11:44:26;96870.97;;;-1.80;67.14
706;BME280;21234;48.690;9.016;2024-01-10T11:46:55;96869.59;;;-1.84;65.98
706;BME280;21234;48.690;9.016;2024-01-10T11:49:23;96869.81;;;-1.78;65.96
706;BME280;21234;48.690;9.016;2024-01-10T11:51:53;96876.03;;;-1.69;66.07
706;BME280;21234;48.690;9.016;2024-01-10T11:54:41;96866.81;;;-1.75;66.06
706;BME280;21234;48.690;9.016;2024-01-10T11:57:12;96871.53;;;-1.60;67.10
706;BME280;21234;48.690;9.016;2024-01-10T11:59:41;96868.97;;;-1.78;64.85
706;BME280;21234;48.690;9.016;2024-01-10T12:02:10;96861.88;;;-1.61;67.03
706;BME280;21234;48.690;9.016;2024-01-10T12:04:37;96862.63;;;-1.43;66.40
706;BME280;21234;48.690;9.016;2024-01-10T12:07:05;96863.50;;;-1.34;66.28
706;BME280;21234;48.690;9.016;2024-01-10T12:09:33;96871.50;;;-1.34;65.32
706;BME280;21234;48.690;9.016;2024-01-10T12:12:00;96870.50;;;-1.25;64.89
706;BME280;21234;48.690;9.016;2024-01-10T12:14:27;96866.38;;;-1.12;64.92
706;BME280;21234;48.690;9.016;2024-01-10T12:16:54;96864.56;;;-1.11;65.95
706;BME280;21234;48.690;9.016;2024-01-10T12:19:22;96866.06;;;-1.09;64.83
706;BME280;21234;48.690;9.016;2024-01-10T12:21:48;96869.53;;;-1.16;64.46
706;BME280;21234;48.690;9.016;2024-01-10T12:24:15;96861.06;;;-1.12;65.17
706;BME280;21234;48.690;9.016;2024-01-10T12:26:46;96863.88;;;-1.13;65.02
706;BME280;21234;48.690;9.016;2024-01-10T12:29:13;96861.72;;;-1.10;64.55
706;BME280;21234;48.690;9.016;2024-01-10T12:31:43;96860.53;;;-1.15;64.11
706;BME280;21234;48.690;9.016;2024-01-10T12:34:11;96853.16;;;-1.29;65.05
706;BME280;21234;48.690;9.016;2024-01-10T12:36:39;96854.19;;;-1.22;65.08
706;BME280;21234;48.690;9.016;2024-01-10T12:39:05;96853.72;;;-1.10;65.87
706;BME280;21234;48.690;9.016;2024-01-10T12:41:33;96851.53;;;-1.14;64.95
706;BME280;21234;48.690;9.016;2024-01-10T12:44:01;96855.91;;;-1.05;66.17
706;BME280;21234;48.690;9.016;2024-01-10T12:46:29;96850.75;;;-0.90;65.35
706;BME280;21234;48.690;9.016;2024-01-10T12:49:00;96851.91;;;-0.93;64.83
706;BME280;21234;48.690;9.016;2024-01-10T12:51:28;96850.91;;;-0.92;64.68
706;BME280;21234;48.690;9.016;2024-01-10T12:53:57;96847.25;;;-0.99;67.00
706;BME280;21234;48.690;9.016;2024-01-10T12:56:25;96856.25;;;-0.84;65.58
706;BME280;21234;48.690;9.016;2024-01-10T12:58:52;96856.41;;;-0.93;64.38
706;BME280;21234;48.690;9.016;2024-01-10T13:01:20;96851.25;;;-0.79;64.63
706;BME280;21234;48.690;9.016;2024-01-10T13:03:46;96849.94;;;-0.75;64.78
706;BME280;21234;48.690;9.016;2024-01-10T13:06:14;96850.28;;;-0.70;65.63
706;BME280;21234;48.690;9.016;2024-01-10T13:08:41;96848.44;;;-0.69;64.20
706;BME280;21234;48.690;9.016;2024-01-10T13:11:10;96847.41;;;-0.60;65.38
706;BME280;21234;48.690;9.016;2024-01-10T13:13:37;96843.06;;;-0.61;64.66
706;BME280;21234;48.690;9.016;2024-01-10T13:16:04;96837.75;;;-0.53;64.80
706;BME280;21234;48.690;9.016;2024-01-10T13:18:31;96842.44;;;-0.39;64.87
706;BME280;21234;48.690;9.016;2024-01-10T13:20:59;96841.09;;;-0.35;65.41
706;BME280;21234;48.690;9.016;2024-01-10T13:23:25;96830.88;;;-0.23;65.10
706;BME280;21234;48.690;9.016;2024-01-10T13:25:52;96839.06;;;-0.24;64.66